Weather at Deep Water Cay Airport

Public forecast

Using degrees Celsius for public forecast. Weather courtesy of forecast.io.

Closest aviation weather report (METAR) to Deep Water Cay Airport

Closest report is Grand Bahama International Airport, 41.8 nm (77.4 km) W. Retrieved 2020/09/26 16:00 UTC (1 hour ago):

MYGF 261600Z 24008KT 9999 VCSH SCT016TCU SCT250 31/27 A3004

Closest aviation forecast (TAF) to Deep Water Cay Airport

Closest forecast is Grand Bahama International Airport, 41.8 nm (77.4 km) W. Retrieved 2020/09/26 12:26 UTC (5 hours ago):

TAF MYGF 260935Z 2612/2712 18008KT 9000 SHRA VCTS SCT018CB BKN090 BKN220 PROB40 TEMPO 2618/2624 VRB05KT 7000 TSRA SCT015CB BKN080 OVC200